sensor_id;sensor_type;location;lat;lon;timestamp;P1;durP1;ratioP1;P2;durP2;ratioP2
5953;SDS011;3002;42.642;24.812;2024-01-25T00:00:38;6.28;;;1.90;;
5953;SDS011;3002;42.642;24.812;2024-01-25T00:03:04;0.80;;;0.60;;
5953;SDS011;3002;42.642;24.812;2024-01-25T00:05:29;13.70;;;3.10;;
5953;SDS011;3002;42.642;24.812;2024-01-25T00:07:54;3.63;;;1.40;;
5953;SDS011;3002;42.642;24.812;2024-01-25T00:10:20;3.13;;;1.03;;
5953;SDS011;3002;42.642;24.812;2024-01-25T00:13:04;7.57;;;2.43;;
5953;SDS011;3002;42.642;24.812;2024-01-25T00:15:29;8.70;;;2.05;;
5953;SDS011;3002;42.642;24.812;2024-01-25T00:17:55;2.83;;;1.10;;
5953;SDS011;3002;42.642;24.812;2024-01-25T00:20:21;14.40;;;3.75;;
5953;SDS011;3002;42.642;24.812;2024-01-25T00:22:47;6.10;;;1.63;;
5953;SDS011;3002;42.642;24.812;2024-01-25T00:25:12;5.20;;;1.60;;
5953;SDS011;3002;42.642;24.812;2024-01-25T00:27:37;3.60;;;1.33;;
5953;SDS011;3002;42.642;24.812;2024-01-25T00:30:03;5.40;;;2.03;;
5953;SDS011;3002;42.642;24.812;2024-01-25T00:32:29;0.90;;;0.60;;
5953;SDS011;3002;42.642;24.812;2024-01-25T00:34:55;1.83;;;1.23;;
5953;SDS011;3002;42.642;24.812;2024-01-25T00:37:20;2.50;;;1.10;;
5953;SDS011;3002;42.642;24.812;2024-01-25T00:39:46;1.33;;;0.70;;
5953;SDS011;3002;42.642;24.812;2024-01-25T00:42:13;1.43;;;0.80;;
5953;SDS011;3002;42.642;24.812;2024-01-25T00:44:39;3.33;;;1.08;;
5953;SDS011;3002;42.642;24.812;2024-01-25T00:47:05;8.37;;;2.60;;
5953;SDS011;3002;42.642;24.812;2024-01-25T00:49:30;2.07;;;1.10;;
5953;SDS011;3002;42.642;24.812;2024-01-25T00:51:58;3.70;;;1.60;;
5953;SDS011;3002;42.642;24.812;2024-01-25T00:54:24;11.20;;;2.88;;
5953;SDS011;3002;42.642;24.812;2024-01-25T00:56:49;5.80;;;1.53;;
5953;SDS011;3002;42.642;24.812;2024-01-25T00:59:17;3.47;;;1.25;;
5953;SDS011;3002;42.642;24.812;2024-01-25T01:01:43;6.60;;;1.87;;
5953;SDS011;3002;42.642;24.812;2024-01-25T01:04:11;4.00;;;1.25;;
5953;SDS011;3002;42.642;24.812;2024-01-25T01:06:36;5.17;;;1.70;;
5953;SDS011;3002;42.642;24.812;2024-01-25T01:09:02;5.33;;;1.70;;
5953;SDS011;3002;42.642;24.812;2024-01-25T01:11:36;6.10;;;2.30;;
5953;SDS011;3002;42.642;24.812;2024-01-25T01:14:01;5.75;;;1.48;;
5953;SDS011;3002;42.642;24.812;2024-01-25T01:16:27;4.67;;;1.47;;
5953;SDS011;3002;42.642;24.812;2024-01-25T01:18:52;17.37;;;4.60;;
5953;SDS011;3002;42.642;24.812;2024-01-25T01:21:17;10.23;;;2.57;;
5953;SDS011;3002;42.642;24.812;2024-01-25T01:23:43;6.00;;;1.60;;
5953;SDS011;3002;42.642;24.812;2024-01-25T01:26:24;3.73;;;1.20;;
5953;SDS011;3002;42.642;24.812;2024-01-25T01:28:49;15.35;;;3.28;;
5953;SDS011;3002;42.642;24.812;2024-01-25T01:31:14;8.60;;;2.37;;
5953;SDS011;3002;42.642;24.812;2024-01-25T01:33:39;6.10;;;1.37;;
5953;SDS011;3002;42.642;24.812;2024-01-25T01:36:05;5.33;;;1.57;;
5953;SDS011;3002;42.642;24.812;2024-01-25T01:38:30;3.90;;;1.20;;
5953;SDS011;3002;42.642;24.812;2024-01-25T01:40:55;4.43;;;1.70;;
5953;SDS011;3002;42.642;24.812;2024-01-25T01:43:21;7.23;;;2.30;;
5953;SDS011;3002;42.642;24.812;2024-01-25T01:45:48;9.18;;;2.90;;
5953;SDS011;3002;42.642;24.812;2024-01-25T01:48:13;4.20;;;1.27;;
5953;SDS011;3002;42.642;24.812;2024-01-25T01:50:38;11.00;;;4.00;;
5953;SDS011;3002;42.642;24.812;2024-01-25T01:53:04;6.20;;;1.80;;
5953;SDS011;3002;42.642;24.812;2024-01-25T01:55:30;10.67;;;3.47;;
5953;SDS011;3002;42.642;24.812;2024-01-25T02:00:51;16.63;;;2.03;;
5953;SDS011;3002;42.642;24.812;2024-01-25T02:03:18;6.18;;;1.77;;
5953;SDS011;3002;42.642;24.812;2024-01-25T02:05:43;13.03;;;3.70;;
5953;SDS011;3002;42.642;24.812;2024-01-25T02:08:08;3.70;;;1.30;;
5953;SDS011;3002;42.642;24.812;2024-01-25T02:10:34;15.70;;;3.87;;
5953;SDS011;3002;42.642;24.812;2024-01-25T02:12:59;4.20;;;1.43;;
5953;SDS011;3002;42.642;24.812;2024-01-25T02:15:24;1.80;;;0.90;;
5953;SDS011;3002;42.642;24.812;2024-01-25T02:17:49;10.23;;;2.80;;
5953;SDS011;3002;42.642;24.812;2024-01-25T02:20:17;1.37;;;0.90;;
5953;SDS011;3002;42.642;24.812;2024-01-25T02:22:42;3.90;;;1.48;;
5953;SDS011;3002;42.642;24.812;2024-01-25T02:25:08;4.57;;;1.27;;
5953;SDS011;3002;42.642;24.812;2024-01-25T02:27:33;0.80;;;0.50;;
5953;SDS011;3002;42.642;24.812;2024-01-25T02:30:03;1.65;;;0.80;;
5953;SDS011;3002;42.642;24.812;2024-01-25T02:32:29;11.00;;;3.33;;
5953;SDS011;3002;42.642;24.812;2024-01-25T02:34:54;3.83;;;1.40;;
5953;SDS011;3002;42.642;24.812;2024-01-25T02:37:19;12.93;;;3.00;;
5953;SDS011;3002;42.642;24.812;2024-01-25T02:39:46;17.88;;;4.10;;
5953;SDS011;3002;42.642;24.812;2024-01-25T02:42:11;3.43;;;1.10;;
5953;SDS011;3002;42.642;24.812;2024-01-25T02:44:37;3.27;;;1.20;;
5953;SDS011;3002;42.642;24.812;2024-01-25T02:47:02;3.43;;;1.37;;
5953;SDS011;3002;42.642;24.812;2024-01-25T02:49:27;4.00;;;1.27;;
5953;SDS011;3002;42.642;24.812;2024-01-25T02:51:53;2.43;;;1.00;;
5953;SDS011;3002;42.642;24.812;2024-01-25T02:54:18;11.17;;;2.60;;
5953;SDS011;3002;42.642;24.812;2024-01-25T02:56:43;7.30;;;2.00;;
5953;SDS011;3002;42.642;24.812;2024-01-25T02:59:09;2.70;;;1.20;;
5953;SDS011;3002;42.642;24.812;2024-01-25T03:01:39;7.67;;;1.90;;
5953;SDS011;3002;42.642;24.812;2024-01-25T03:04:05;3.45;;;1.17;;
5953;SDS011;3002;42.642;24.812;2024-01-25T03:06:30;6.00;;;1.83;;
5953;SDS011;3002;42.642;24.812;2024-01-25T03:08:55;2.73;;;1.30;;
5953;SDS011;3002;42.642;24.812;2024-01-25T03:17:26;12.05;;;2.67;;
5953;SDS011;3002;42.642;24.812;2024-01-25T03:19:51;12.30;;;2.73;;
5953;SDS011;3002;42.642;24.812;2024-01-25T03:22:17;9.17;;;2.00;;
5953;SDS011;3002;42.642;24.812;2024-01-25T03:24:42;9.53;;;2.20;;
5953;SDS011;3002;42.642;24.812;2024-01-25T03:30:07;6.27;;;1.77;;
5953;SDS011;3002;42.642;24.812;2024-01-25T03:32:33;10.00;;;2.37;;
5953;SDS011;3002;42.642;24.812;2024-01-25T03:34:58;6.97;;;1.80;;
5953;SDS011;3002;42.642;24.812;2024-01-25T03:37:23;10.27;;;2.23;;
5953;SDS011;3002;42.642;24.812;2024-01-25T03:39:49;12.80;;;2.40;;
5953;SDS011;3002;42.642;24.812;2024-01-25T03:42:14;7.77;;;1.60;;
5953;SDS011;3002;42.642;24.812;2024-01-25T03:44:39;11.03;;;2.40;;
5953;SDS011;3002;42.642;24.812;2024-01-25T03:47:07;7.40;;;1.90;;
5953;SDS011;3002;42.642;24.812;2024-01-25T03:49:32;13.37;;;3.30;;
5953;SDS011;3002;42.642;24.812;2024-01-25T03:51:57;11.63;;;2.47;;
5953;SDS011;3002;42.642;24.812;2024-01-25T03:54:23;20.60;;;4.07;;
5953;SDS011;3002;42.642;24.812;2024-01-25T03:56:48;12.43;;;2.67;;
5953;SDS011;3002;42.642;24.812;2024-01-25T03:59:13;14.30;;;3.27;;
5953;SDS011;3002;42.642;24.812;2024-01-25T04:01:43;1.40;;;0.60;;
5953;SDS011;3002;42.642;24.812;2024-01-25T04:04:08;2.53;;;0.80;;
5953;SDS011;3002;42.642;24.812;2024-01-25T04:06:35;3.40;;;1.10;;
5953;SDS011;3002;42.642;24.812;2024-01-25T04:09:01;6.10;;;1.53;;
5953;SDS011;3002;42.642;24.812;2024-01-25T04:11:26;14.73;;;2.93;;
5953;SDS011;3002;42.642;24.812;2024-01-25T04:13:51;9.53;;;2.03;;
5953;SDS011;3002;42.642;24.812;2024-01-25T04:16:16;19.67;;;4.00;;
5953;SDS011;3002;42.642;24.812;2024-01-25T04:18:42;12.13;;;2.70;;
5953;SDS011;3002;42.642;24.812;2024-01-25T04:21:07;17.90;;;3.80;;
5953;SDS011;3002;42.642;24.812;2024-01-25T04:23:34;11.20;;;2.40;;
5953;SDS011;3002;42.642;24.812;2024-01-25T04:25:59;14.97;;;3.00;;
5953;SDS011;3002;42.642;24.812;2024-01-25T04:28:25;11.13;;;2.20;;
5953;SDS011;3002;42.642;24.812;2024-01-25T04:30:50;13.60;;;3.07;;
5953;SDS011;3002;42.642;24.812;2024-01-25T04:33:16;18.03;;;3.60;;
5953;SDS011;3002;42.642;24.812;2024-01-25T04:35:41;8.30;;;1.80;;
5953;SDS011;3002;42.642;24.812;2024-01-25T04:38:08;8.93;;;2.03;;
5953;SDS011;3002;42.642;24.812;2024-01-25T04:40:33;8.63;;;2.13;;
5953;SDS011;3002;42.642;24.812;2024-01-25T04:43:08;21.73;;;4.33;;
5953;SDS011;3002;42.642;24.812;2024-01-25T04:45:33;11.40;;;2.17;;
5953;SDS011;3002;42.642;24.812;2024-01-25T04:48:00;23.97;;;4.60;;
5953;SDS011;3002;42.642;24.812;2024-01-25T04:50:25;12.83;;;2.60;;
5953;SDS011;3002;42.642;24.812;2024-01-25T04:52:50;11.07;;;2.27;;
5953;SDS011;3002;42.642;24.812;2024-01-25T04:55:16;21.60;;;5.60;;
5953;SDS011;3002;42.642;24.812;2024-01-25T04:57:41;5.97;;;1.57;;
5953;SDS011;3002;42.642;24.812;2024-01-25T05:00:07;5.10;;;1.23;;
5953;SDS011;3002;42.642;24.812;2024-01-25T05:02:33;3.27;;;0.87;;
5953;SDS011;3002;42.642;24.812;2024-01-25T05:04:58;4.00;;;1.10;;
5953;SDS011;3002;42.642;24.812;2024-01-25T05:07:24;8.27;;;2.10;;
5953;SDS011;3002;42.642;24.812;2024-01-25T05:09:49;11.07;;;2.50;;
5953;SDS011;3002;42.642;24.812;2024-01-25T05:18:13;11.80;;;2.83;;
5953;SDS011;3002;42.642;24.812;2024-01-25T05:20:39;11.83;;;2.50;;
5953;SDS011;3002;42.642;24.812;2024-01-25T05:23:04;14.23;;;3.20;;
5953;SDS011;3002;42.642;24.812;2024-01-25T05:25:30;19.40;;;3.70;;
5953;SDS011;3002;42.642;24.812;2024-01-25T05:27:57;7.87;;;1.80;;
5953;SDS011;3002;42.642;24.812;2024-01-25T05:30:22;11.97;;;2.60;;
5953;SDS011;3002;42.642;24.812;2024-01-25T05:32:47;11.80;;;2.33;;
5953;SDS011;3002;42.642;24.812;2024-01-25T05:35:16;11.63;;;2.47;;
5953;SDS011;3002;42.642;24.812;2024-01-25T05:37:41;12.70;;;2.73;;
5953;SDS011;3002;42.642;24.812;2024-01-25T05:40:07;15.50;;;3.13;;
5953;SDS011;3002;42.642;24.812;2024-01-25T05:42:38;10.83;;;2.20;;
5953;SDS011;3002;42.642;24.812;2024-01-25T05:45:03;27.33;;;5.43;;
5953;SDS011;3002;42.642;24.812;2024-01-25T05:47:28;16.17;;;3.20;;
5953;SDS011;3002;42.642;24.812;2024-01-25T05:49:54;19.37;;;3.87;;
5953;SDS011;3002;42.642;24.812;2024-01-25T05:52:20;16.67;;;3.70;;
5953;SDS011;3002;42.642;24.812;2024-01-25T05:54:46;20.00;;;4.10;;
5953;SDS011;3002;42.642;24.812;2024-01-25T05:57:11;13.07;;;2.80;;
5953;SDS011;3002;42.642;24.812;2024-01-25T05:59:37;20.53;;;4.00;;
5953;SDS011;3002;42.642;24.812;2024-01-25T06:02:02;15.83;;;3.70;;
5953;SDS011;3002;42.642;24.812;2024-01-25T06:04:28;11.03;;;2.40;;
5953;SDS011;3002;42.642;24.812;2024-01-25T06:06:53;25.43;;;4.80;;
5953;SDS011;3002;42.642;24.812;2024-01-25T06:09:18;9.97;;;2.30;;
5953;SDS011;3002;42.642;24.812;2024-01-25T06:11:44;21.10;;;4.13;;
5953;SDS011;3002;42.642;24.812;2024-01-25T06:14:09;10.00;;;2.20;;
5953;SDS011;3002;42.642;24.812;2024-01-25T06:16:35;19.67;;;3.93;;
5953;SDS011;3002;42.642;24.812;2024-01-25T06:19:01;11.90;;;2.70;;
5953;SDS011;3002;42.642;24.812;2024-01-25T06:21:27;18.27;;;3.83;;
5953;SDS011;3002;42.642;24.812;2024-01-25T06:23:52;16.73;;;3.33;;
5953;SDS011;3002;42.642;24.812;2024-01-25T06:26:18;12.23;;;2.80;;
5953;SDS011;3002;42.642;24.812;2024-01-25T06:31:43;18.83;;;4.37;;
5953;SDS011;3002;42.642;24.812;2024-01-25T06:34:09;24.33;;;4.70;;
5953;SDS011;3002;42.642;24.812;2024-01-25T06:36:34;15.13;;;3.50;;
5953;SDS011;3002;42.642;24.812;2024-01-25T06:38:59;11.63;;;2.40;;
5953;SDS011;3002;42.642;24.812;2024-01-25T06:41:24;10.73;;;2.07;;
5953;SDS011;3002;42.642;24.812;2024-01-25T06:43:50;7.60;;;2.00;;
5953;SDS011;3002;42.642;24.812;2024-01-25T06:46:15;20.00;;;4.00;;
5953;SDS011;3002;42.642;24.812;2024-01-25T06:48:40;16.60;;;3.43;;
5953;SDS011;3002;42.642;24.812;2024-01-25T06:51:06;13.57;;;3.07;;
5953;SDS011;3002;42.642;24.812;2024-01-25T06:53:31;15.07;;;3.03;;
5953;SDS011;3002;42.642;24.812;2024-01-25T06:56:02;15.30;;;3.33;;
5953;SDS011;3002;42.642;24.812;2024-01-25T06:58:33;10.40;;;2.40;;
5953;SDS011;3002;42.642;24.812;2024-01-25T07:01:01;35.37;;;6.30;;
5953;SDS011;3002;42.642;24.812;2024-01-25T07:03:29;21.00;;;4.10;;
5953;SDS011;3002;42.642;24.812;2024-01-25T07:05:55;8.43;;;1.67;;
5953;SDS011;3002;42.642;24.812;2024-01-25T07:08:20;20.50;;;3.67;;
5953;SDS011;3002;42.642;24.812;2024-01-25T07:10:46;12.73;;;2.53;;
5953;SDS011;3002;42.642;24.812;2024-01-25T07:13:18;16.33;;;2.77;;
5953;SDS011;3002;42.642;24.812;2024-01-25T07:15:44;15.87;;;2.80;;
5953;SDS011;3002;42.642;24.812;2024-01-25T07:18:10;25.70;;;5.10;;
5953;SDS011;3002;42.642;24.812;2024-01-25T07:20:36;18.10;;;3.27;;
5953;SDS011;3002;42.642;24.812;2024-01-25T07:23:03;32.63;;;5.53;;
5953;SDS011;3002;42.642;24.812;2024-01-25T07:25:30;19.47;;;3.57;;
5953;SDS011;3002;42.642;24.812;2024-01-25T07:27:56;6.17;;;1.73;;
5953;SDS011;3002;42.642;24.812;2024-01-25T07:30:21;22.20;;;3.83;;
5953;SDS011;3002;42.642;24.812;2024-01-25T07:32:47;15.83;;;2.87;;
5953;SDS011;3002;42.642;24.812;2024-01-25T07:35:12;29.07;;;5.73;;
5953;SDS011;3002;42.642;24.812;2024-01-25T07:37:38;14.77;;;2.57;;
5953;SDS011;3002;42.642;24.812;2024-01-25T07:40:05;15.93;;;3.33;;
5953;SDS011;3002;42.642;24.812;2024-01-25T07:42:37;12.90;;;2.50;;
5953;SDS011;3002;42.642;24.812;2024-01-25T07:45:03;20.70;;;3.60;;
5953;SDS011;3002;42.642;24.812;2024-01-25T07:47:29;13.27;;;2.47;;
5953;SDS011;3002;42.642;24.812;2024-01-25T07:49:55;19.77;;;3.50;;
5953;SDS011;3002;42.642;24.812;2024-01-25T07:52:20;13.23;;;3.00;;
5953;SDS011;3002;42.642;24.812;2024-01-25T07:54:45;11.83;;;2.27;;
5953;SDS011;3002;42.642;24.812;2024-01-25T07:57:11;23.63;;;4.73;;
5953;SDS011;3002;42.642;24.812;2024-01-25T07:59:36;10.53;;;2.20;;
5953;SDS011;3002;42.642;24.812;2024-01-25T08:02:01;18.03;;;3.50;;
5953;SDS011;3002;42.642;24.812;2024-01-25T08:04:27;19.27;;;3.70;;
5953;SDS011;3002;42.642;24.812;2024-01-25T08:06:52;8.67;;;1.97;;
5953;SDS011;3002;42.642;24.812;2024-01-25T08:09:17;16.60;;;3.17;;
5953;SDS011;3002;42.642;24.812;2024-01-25T08:11:43;13.00;;;2.53;;
5953;SDS011;3002;42.642;24.812;2024-01-25T08:14:08;12.63;;;2.40;;
5953;SDS011;3002;42.642;24.812;2024-01-25T08:16:34;15.73;;;2.80;;
5953;SDS011;3002;42.642;24.812;2024-01-25T08:19:00;8.90;;;1.80;;
5953;SDS011;3002;42.642;24.812;2024-01-25T08:21:25;15.17;;;3.17;;
5953;SDS011;3002;42.642;24.812;2024-01-25T08:23:51;10.03;;;2.20;;
5953;SDS011;3002;42.642;24.812;2024-01-25T08:26:16;8.93;;;1.93;;
5953;SDS011;3002;42.642;24.812;2024-01-25T08:28:42;14.63;;;3.17;;
5953;SDS011;3002;42.642;24.812;2024-01-25T08:31:10;9.00;;;1.97;;
5953;SDS011;3002;42.642;24.812;2024-01-25T08:33:35;11.90;;;2.77;;
5953;SDS011;3002;42.642;24.812;2024-01-25T08:36:01;9.00;;;2.10;;
5953;SDS011;3002;42.642;24.812;2024-01-25T08:38:27;11.50;;;2.30;;
5953;SDS011;3002;42.642;24.812;2024-01-25T08:40:52;6.53;;;1.60;;
5953;SDS011;3002;42.642;24.812;2024-01-25T08:46:15;10.80;;;1.87;;
5953;SDS011;3002;42.642;24.812;2024-01-25T08:48:41;5.40;;;1.13;;
5953;SDS011;3002;42.642;24.812;2024-01-25T08:51:06;5.13;;;1.23;;
5953;SDS011;3002;42.642;24.812;2024-01-25T08:53:32;6.70;;;1.67;;
5953;SDS011;3002;42.642;24.812;2024-01-25T08:55:58;8.60;;;1.83;;
5953;SDS011;3002;42.642;24.812;2024-01-25T08:58:26;8.37;;;1.70;;
5953;SDS011;3002;42.642;24.812;2024-01-25T09:00:53;5.00;;;1.30;;
5953;SDS011;3002;42.642;24.812;2024-01-25T09:03:18;5.80;;;1.50;;
5953;SDS011;3002;42.642;24.812;2024-01-25T09:05:43;11.03;;;2.10;;
5953;SDS011;3002;42.642;24.812;2024-01-25T09:08:12;6.43;;;1.43;;
5953;SDS011;3002;42.642;24.812;2024-01-25T09:10:38;14.20;;;2.80;;
5953;SDS011;3002;42.642;24.812;2024-01-25T09:13:03;11.73;;;2.20;;
5953;SDS011;3002;42.642;24.812;2024-01-25T09:15:29;16.03;;;3.13;;
5953;SDS011;3002;42.642;24.812;2024-01-25T09:17:54;7.97;;;1.80;;
5953;SDS011;3002;42.642;24.812;2024-01-25T09:20:20;8.90;;;1.83;;
5953;SDS011;3002;42.642;24.812;2024-01-25T09:22:45;11.53;;;2.20;;
5953;SDS011;3002;42.642;24.812;2024-01-25T09:25:11;10.47;;;2.20;;
5953;SDS011;3002;42.642;24.812;2024-01-25T09:27:49;12.23;;;2.20;;
5953;SDS011;3002;42.642;24.812;2024-01-25T09:30:14;5.40;;;1.37;;
5953;SDS011;3002;42.642;24.812;2024-01-25T09:32:40;8.00;;;1.67;;
5953;SDS011;3002;42.642;24.812;2024-01-25T09:35:05;5.60;;;1.20;;
5953;SDS011;3002;42.642;24.812;2024-01-25T09:37:30;9.23;;;1.80;;
5953;SDS011;3002;42.642;24.812;2024-01-25T09:39:56;16.07;;;2.93;;
5953;SDS011;3002;42.642;24.812;2024-01-25T09:42:24;17.37;;;3.00;;
5953;SDS011;3002;42.642;24.812;2024-01-25T09:44:50;11.73;;;2.37;;
5953;SDS011;3002;42.642;24.812;2024-01-25T09:47:15;7.10;;;1.53;;
5953;SDS011;3002;42.642;24.812;2024-01-25T09:49:41;7.30;;;1.57;;
5953;SDS011;3002;42.642;24.812;2024-01-25T09:52:07;4.33;;;1.10;;
5953;SDS011;3002;42.642;24.812;2024-01-25T09:54:38;15.30;;;2.80;;
5953;SDS011;3002;42.642;24.812;2024-01-25T09:57:05;20.57;;;4.57;;
5953;SDS011;3002;42.642;24.812;2024-01-25T09:59:31;4.13;;;1.07;;
5953;SDS011;3002;42.642;24.812;2024-01-25T10:01:57;4.60;;;1.10;;
5953;SDS011;3002;42.642;24.812;2024-01-25T10:04:24;10.27;;;2.30;;
5953;SDS011;3002;42.642;24.812;2024-01-25T10:06:54;4.90;;;1.13;;
5953;SDS011;3002;42.642;24.812;2024-01-25T10:09:20;19.43;;;3.80;;
5953;SDS011;3002;42.642;24.812;2024-01-25T10:11:45;3.73;;;0.90;;
5953;SDS011;3002;42.642;24.812;2024-01-25T10:14:10;6.03;;;1.33;;
5953;SDS011;3002;42.642;24.812;2024-01-25T10:16:37;12.33;;;2.20;;
5953;SDS011;3002;42.642;24.812;2024-01-25T10:19:04;5.63;;;1.40;;
5953;SDS011;3002;42.642;24.812;2024-01-25T10:21:31;14.23;;;2.97;;
5953;SDS011;3002;42.642;24.812;2024-01-25T10:23:56;14.90;;;2.80;;
5953;SDS011;3002;42.642;24.812;2024-01-25T10:26:26;9.23;;;1.97;;
5953;SDS011;3002;42.642;24.812;2024-01-25T10:28:52;15.60;;;2.77;;
5953;SDS011;3002;42.642;24.812;2024-01-25T10:31:17;19.20;;;3.57;;
5953;SDS011;3002;42.642;24.812;2024-01-25T10:33:43;7.90;;;1.80;;
5953;SDS011;3002;42.642;24.812;2024-01-25T10:36:09;19.40;;;3.90;;
5953;SDS011;3002;42.642;24.812;2024-01-25T10:38:36;6.20;;;1.33;;
5953;SDS011;3002;42.642;24.812;2024-01-25T10:41:02;15.60;;;3.47;;
5953;SDS011;3002;42.642;24.812;2024-01-25T10:43:28;13.37;;;2.50;;
5953;SDS011;3002;42.642;24.812;2024-01-25T10:45:55;20.33;;;4.47;;
5953;SDS011;3002;42.642;24.812;2024-01-25T10:48:23;6.30;;;1.70;;
5953;SDS011;3002;42.642;24.812;2024-01-25T10:50:48;10.07;;;2.63;;
5953;SDS011;3002;42.642;24.812;2024-01-25T10:53:14;12.60;;;2.60;;
5953;SDS011;3002;42.642;24.812;2024-01-25T10:55:40;17.00;;;4.13;;
5953;SDS011;3002;42.642;24.812;2024-01-25T10:58:06;12.73;;;3.07;;
5953;SDS011;3002;42.642;24.812;2024-01-25T11:00:33;8.33;;;1.87;;
5953;SDS011;3002;42.642;24.812;2024-01-25T11:03:00;5.90;;;1.50;;
5953;SDS011;3002;42.642;24.812;2024-01-25T11:05:26;6.60;;;3.63;;
5953;SDS011;3002;42.642;24.812;2024-01-25T11:07:51;15.03;;;9.67;;
5953;SDS011;3002;42.642;24.812;2024-01-25T11:10:17;5.97;;;1.80;;
5953;SDS011;3002;42.642;24.812;2024-01-25T11:12:47;8.83;;;7.10;;
5953;SDS011;3002;42.642;24.812;2024-01-25T11:15:17;10.33;;;2.77;;
5953;SDS011;3002;42.642;24.812;2024-01-25T11:17:42;5.83;;;1.83;;
5953;SDS011;3002;42.642;24.812;2024-01-25T11:20:15;16.57;;;9.30;;
5953;SDS011;3002;42.642;24.812;2024-01-25T11:22:44;355.30;;;324.33;;
5953;SDS011;3002;42.642;24.812;2024-01-25T11:27:58;251.27;;;230.47;;
5953;SDS011;3002;42.642;24.812;2024-01-25T11:30:25;207.13;;;190.23;;
5953;SDS011;3002;42.642;24.812;2024-01-25T11:32:50;204.57;;;189.67;;
5953;SDS011;3002;42.642;24.812;2024-01-25T11:35:16;687.70;;;455.30;;
5953;SDS011;3002;42.642;24.812;2024-01-25T11:37:47;658.53;;;462.57;;
5953;SDS011;3002;42.642;24.812;2024-01-25T11:40:13;449.67;;;404.83;;
5953;SDS011;3002;42.642;24.812;2024-01-25T11:42:49;392.20;;;357.90;;
5953;SDS011;3002;42.642;24.812;2024-01-25T11:45:14;307.90;;;283.53;;
5953;SDS011;3002;42.642;24.812;2024-01-25T11:47:40;287.07;;;264.00;;
5953;SDS011;3002;42.642;24.812;2024-01-25T11:50:06;204.40;;;189.17;;
5953;SDS011;3002;42.642;24.812;2024-01-25T11:52:32;202.57;;;187.30;;
5953;SDS011;3002;42.642;24.812;2024-01-25T11:54:59;161.97;;;150.53;;
5953;SDS011;3002;42.642;24.812;2024-01-25T11:57:24;73.60;;;67.83;;
5953;SDS011;3002;42.642;24.812;2024-01-25T11:59:52;132.70;;;122.10;;
5953;SDS011;3002;42.642;24.812;2024-01-25T12:02:18;151.67;;;140.07;;
5953;SDS011;3002;42.642;24.812;2024-01-25T12:04:45;150.13;;;138.60;;
5953;SDS011;3002;42.642;24.812;2024-01-25T12:07:11;143.43;;;132.90;;
5953;SDS011;3002;42.642;24.812;2024-01-25T12:09:36;64.83;;;59.23;;
5953;SDS011;3002;42.642;24.812;2024-01-25T12:12:01;80.93;;;76.03;;
5953;SDS011;3002;42.642;24.812;2024-01-25T12:14:28;172.53;;;159.87;;
5953;SDS011;3002;42.642;24.812;2024-01-25T12:16:56;152.53;;;141.83;;
5953;SDS011;3002;42.642;24.812;2024-01-25T12:19:22;153.50;;;141.77;;
5953;SDS011;3002;42.642;24.812;2024-01-25T12:21:47;146.37;;;135.07;;
5953;SDS011;3002;42.642;24.812;2024-01-25T12:24:12;214.60;;;198.67;;
5953;SDS011;3002;42.642;24.812;2024-01-25T12:26:38;131.07;;;122.53;;
5953;SDS011;3002;42.642;24.812;2024-01-25T12:29:03;138.87;;;130.37;;
5953;SDS011;3002;42.642;24.812;2024-01-25T12:31:30;177.37;;;165.27;;
5953;SDS011;3002;42.642;24.812;2024-01-25T12:33:55;141.47;;;132.53;;
5953;SDS011;3002;42.642;24.812;2024-01-25T12:36:20;121.33;;;113.20;;
5953;SDS011;3002;42.642;24.812;2024-01-25T12:38:46;136.07;;;127.47;;
5953;SDS011;3002;42.642;24.812;2024-01-25T12:41:13;84.50;;;79.50;;
5953;SDS011;3002;42.642;24.812;2024-01-25T12:43:39;107.17;;;100.77;;
5953;SDS011;3002;42.642;24.812;2024-01-25T12:46:04;176.63;;;164.83;;
5953;SDS011;3002;42.642;24.812;2024-01-25T12:48:29;97.10;;;91.00;;
5953;SDS011;3002;42.642;24.812;2024-01-25T12:50:55;114.73;;;106.70;;
5953;SDS011;3002;42.642;24.812;2024-01-25T12:53:20;144.97;;;134.13;;
5953;SDS011;3002;42.642;24.812;2024-01-25T12:55:45;166.93;;;156.57;;
5953;SDS011;3002;42.642;24.812;2024-01-25T12:58:10;245.20;;;228.67;;
5953;SDS011;3002;42.642;24.812;2024-01-25T13:00:36;252.20;;;236.33;;
5953;SDS011;3002;42.642;24.812;2024-01-25T13:03:01;195.60;;;183.50;;
5953;SDS011;3002;42.642;24.812;2024-01-25T13:05:27;237.97;;;222.57;;
5953;SDS011;3002;42.642;24.812;2024-01-25T13:07:52;202.30;;;189.50;;
5953;SDS011;3002;42.642;24.812;2024-01-25T13:10:17;218.87;;;204.47;;
5953;SDS011;3002;42.642;24.812;2024-01-25T13:12:43;169.70;;;158.77;;
5953;SDS011;3002;42.642;24.812;2024-01-25T13:15:08;183.53;;;170.80;;
5953;SDS011;3002;42.642;24.812;2024-01-25T13:17:34;203.37;;;189.37;;
5953;SDS011;3002;42.642;24.812;2024-01-25T13:19:59;172.03;;;160.47;;
5953;SDS011;3002;42.642;24.812;2024-01-25T13:22:25;162.47;;;150.90;;
5953;SDS011;3002;42.642;24.812;2024-01-25T13:24:50;106.60;;;99.87;;
5953;SDS011;3002;42.642;24.812;2024-01-25T13:27:16;112.27;;;105.57;;
5953;SDS011;3002;42.642;24.812;2024-01-25T13:29:41;137.33;;;128.33;;
5953;SDS011;3002;42.642;24.812;2024-01-25T13:32:07;196.93;;;183.67;;
5953;SDS011;3002;42.642;24.812;2024-01-25T13:34:32;300.87;;;281.37;;
5953;SDS011;3002;42.642;24.812;2024-01-25T13:36:58;239.20;;;224.20;;
5953;SDS011;3002;42.642;24.812;2024-01-25T13:39:23;243.30;;;227.70;;
5953;SDS011;3002;42.642;24.812;2024-01-25T13:41:48;164.23;;;152.67;;
5953;SDS011;3002;42.642;24.812;2024-01-25T13:44:15;170.80;;;160.80;;
5953;SDS011;3002;42.642;24.812;2024-01-25T13:46:40;186.77;;;174.47;;
5953;SDS011;3002;42.642;24.812;2024-01-25T13:49:05;154.33;;;144.67;;
5953;SDS011;3002;42.642;24.812;2024-01-25T13:51:31;144.13;;;134.73;;
5953;SDS011;3002;42.642;24.812;2024-01-25T13:53:56;172.93;;;161.03;;
5953;SDS011;3002;42.642;24.812;2024-01-25T13:56:21;169.40;;;158.43;;
5953;SDS011;3002;42.642;24.812;2024-01-25T13:58:47;144.47;;;135.83;;
5953;SDS011;3002;42.642;24.812;2024-01-25T14:01:12;136.93;;;127.33;;
5953;SDS011;3002;42.642;24.812;2024-01-25T14:03:37;150.87;;;139.40;;
5953;SDS011;3002;42.642;24.812;2024-01-25T14:06:03;125.57;;;117.67;;
5953;SDS011;3002;42.642;24.812;2024-01-25T14:08:34;121.30;;;111.60;;
5953;SDS011;3002;42.642;24.812;2024-01-25T14:11:00;102.93;;;96.07;;
5953;SDS011;3002;42.642;24.812;2024-01-25T14:13:25;122.13;;;113.23;;
5953;SDS011;3002;42.642;24.812;2024-01-25T14:15:50;92.63;;;86.47;;
5953;SDS011;3002;42.642;24.812;2024-01-25T14:18:15;87.13;;;80.77;;
5953;SDS011;3002;42.642;24.812;2024-01-25T14:20:41;93.93;;;88.23;;
5953;SDS011;3002;42.642;24.812;2024-01-25T14:23:06;63.23;;;59.43;;
5953;SDS011;3002;42.642;24.812;2024-01-25T14:25:31;94.77;;;86.10;;
5953;SDS011;3002;42.642;24.812;2024-01-25T14:27:57;81.57;;;76.27;;
5953;SDS011;3002;42.642;24.812;2024-01-25T14:30:22;84.97;;;76.83;;
5953;SDS011;3002;42.642;24.812;2024-01-25T14:32:47;65.33;;;60.80;;
5953;SDS011;3002;42.642;24.812;2024-01-25T14:35:13;74.83;;;70.03;;
5953;SDS011;3002;42.642;24.812;2024-01-25T14:37:38;88.10;;;82.33;;
5953;SDS011;3002;42.642;24.812;2024-01-25T14:40:03;91.53;;;84.73;;
5953;SDS011;3002;42.642;24.812;2024-01-25T14:42:29;120.40;;;111.77;;
5953;SDS011;3002;42.642;24.812;2024-01-25T14:44:54;152.27;;;139.57;;
5953;SDS011;3002;42.642;24.812;2024-01-25T14:47:19;181.93;;;169.57;;
5953;SDS011;3002;42.642;24.812;2024-01-25T14:49:47;147.57;;;137.87;;
5953;SDS011;3002;42.642;24.812;2024-01-25T14:52:13;200.30;;;186.20;;
5953;SDS011;3002;42.642;24.812;2024-01-25T14:54:38;135.30;;;125.83;;
5953;SDS011;3002;42.642;24.812;2024-01-25T14:57:03;168.57;;;153.07;;
5953;SDS011;3002;42.642;24.812;2024-01-25T14:59:29;145.87;;;135.27;;
5953;SDS011;3002;42.642;24.812;2024-01-25T15:01:54;100.17;;;93.73;;